CNX weather

Chiang Mai International Airport
Chiang Mai, Chiang Mai Province, Thailand

Public forecast

Using degrees Celsius for public forecast. Weather courtesy of forecast.io.

Current aviation weather report (METAR) for Chiang Mai International Airport

Retrieved 2019/12/08 05:30 UTC (0 seconds ago):

VTCC 080530Z 04006KT CAVOK 23/05 Q1022 NOSIG

Aviation forecast (TAF) for Chiang Mai International Airport

Retrieved 2019-12-08 00:37 UTC (4 hours ago):

TAF VTCC 072300Z 0800/0906 24005KT CAVOK BECMG 0801/0803 36010KT BECMG 0811/0813 03005KT